sensor_id;sensor_type;location;lat;lon;timestamp;temperature;humidity
30174;DHT22;16985;50.814;8.530;2022-10-12T00:00:08;4.40;99.90
30174;DHT22;16985;50.814;8.530;2022-10-12T00:02:41;4.40;99.90
30174;DHT22;16985;50.814;8.530;2022-10-12T00:05:08;4.40;99.90
30174;DHT22;16985;50.814;8.530;2022-10-12T00:07:34;4.30;99.90
30174;DHT22;16985;50.814;8.530;2022-10-12T00:10:00;4.20;99.90
30174;DHT22;16985;50.814;8.530;2022-10-12T00:12:26;4.30;99.90
30174;DHT22;16985;50.814;8.530;2022-10-12T00:14:52;4.20;99.90
30174;DHT22;16985;50.814;8.530;2022-10-12T00:17:18;4.20;99.90
30174;DHT22;16985;50.814;8.530;2022-10-12T00:19:44;4.20;99.90
30174;DHT22;16985;50.814;8.530;2022-10-12T00:22:10;4.10;99.90
30174;DHT22;16985;50.814;8.530;2022-10-12T00:24:36;4.10;99.90
30174;DHT22;16985;50.814;8.530;2022-10-12T00:27:01;4.10;99.90
30174;DHT22;16985;50.814;8.530;2022-10-12T00:29:27;4.10;99.90
30174;DHT22;16985;50.814;8.530;2022-10-12T00:31:53;4.10;99.90
30174;DHT22;16985;50.814;8.530;2022-10-12T00:34:19;4.00;99.90
30174;DHT22;16985;50.814;8.530;2022-10-12T00:36:45;4.00;99.90
30174;DHT22;16985;50.814;8.530;2022-10-12T00:39:11;4.00;99.90
30174;DHT22;16985;50.814;8.530;2022-10-12T00:41:39;4.00;99.90
30174;DHT22;16985;50.814;8.530;2022-10-12T00:44:45;3.90;99.90
30174;DHT22;16985;50.814;8.530;2022-10-12T00:47:32;3.90;99.90
30174;DHT22;16985;50.814;8.530;2022-10-12T00:50:05;3.90;99.90
30174;DHT22;16985;50.814;8.530;2022-10-12T00:52:41;3.90;99.90
30174;DHT22;16985;50.814;8.530;2022-10-12T00:55:21;3.80;99.90
30174;DHT22;16985;50.814;8.530;2022-10-12T00:57:50;3.80;99.90
30174;DHT22;16985;50.814;8.530;2022-10-12T01:00:18;3.80;99.90
30174;DHT22;16985;50.814;8.530;2022-10-12T01:02:46;3.80;99.90
30174;DHT22;16985;50.814;8.530;2022-10-12T01:05:14;3.80;99.90
30174;DHT22;16985;50.814;8.530;2022-10-12T01:07:41;3.70;99.90
30174;DHT22;16985;50.814;8.530;2022-10-12T01:10:07;3.70;99.90
30174;DHT22;16985;50.814;8.530;2022-10-12T01:12:40;3.60;99.90
30174;DHT22;16985;50.814;8.530;2022-10-12T01:15:07;3.60;99.90
30174;DHT22;16985;50.814;8.530;2022-10-12T01:17:59;3.60;99.90
30174;DHT22;16985;50.814;8.530;2022-10-12T01:26:30;3.90;99.90
30174;DHT22;16985;50.814;8.530;2022-10-12T01:31:58;3.50;99.90
30174;DHT22;16985;50.814;8.530;2022-10-12T01:37:56;3.50;99.90
30174;DHT22;16985;50.814;8.530;2022-10-12T01:40:54;3.40;99.90
30174;DHT22;16985;50.814;8.530;2022-10-12T01:43:32;3.40;99.90
30174;DHT22;16985;50.814;8.530;2022-10-12T01:48:43;3.40;99.90
30174;DHT22;16985;50.814;8.530;2022-10-12T01:51:12;3.40;99.90
30174;DHT22;16985;50.814;8.530;2022-10-12T01:53:45;3.30;99.90
30174;DHT22;16985;50.814;8.530;2022-10-12T01:56:25;3.30;99.90
30174;DHT22;16985;50.814;8.530;2022-10-12T01:59:00;3.30;99.90
30174;DHT22;16985;50.814;8.530;2022-10-12T02:01:43;3.20;99.90
30174;DHT22;16985;50.814;8.530;2022-10-12T02:04:36;3.20;99.90
30174;DHT22;16985;50.814;8.530;2022-10-12T02:07:35;3.20;99.90
30174;DHT22;16985;50.814;8.530;2022-10-12T02:10:02;3.20;99.90
30174;DHT22;16985;50.814;8.530;2022-10-12T02:12:30;3.20;99.90
30174;DHT22;16985;50.814;8.530;2022-10-12T02:14:59;3.10;99.90
30174;DHT22;16985;50.814;8.530;2022-10-12T02:17:26;3.10;99.90
30174;DHT22;16985;50.814;8.530;2022-10-12T02:19:56;3.10;99.90
30174;DHT22;16985;50.814;8.530;2022-10-12T02:22:26;3.10;99.90
30174;DHT22;16985;50.814;8.530;2022-10-12T02:24:59;3.00;99.90
30174;DHT22;16985;50.814;8.530;2022-10-12T02:27:26;3.00;99.90
30174;DHT22;16985;50.814;8.530;2022-10-12T02:29:52;3.00;99.90
30174;DHT22;16985;50.814;8.530;2022-10-12T02:32:19;3.00;99.90
30174;DHT22;16985;50.814;8.530;2022-10-12T02:38:42;3.00;99.90
30174;DHT22;16985;50.814;8.530;2022-10-12T02:40:47;2.90;99.90
30174;DHT22;16985;50.814;8.530;2022-10-12T02:43:24;2.90;99.90
30174;DHT22;16985;50.814;8.530;2022-10-12T02:45:54;2.90;99.90
30174;DHT22;16985;50.814;8.530;2022-10-12T02:48:23;2.90;99.90
30174;DHT22;16985;50.814;8.530;2022-10-12T02:50:52;2.80;99.90
30174;DHT22;16985;50.814;8.530;2022-10-12T02:53:20;2.80;99.90
30174;DHT22;16985;50.814;8.530;2022-10-12T02:55:48;2.80;99.90
30174;DHT22;16985;50.814;8.530;2022-10-12T02:58:16;2.80;99.90
30174;DHT22;16985;50.814;8.530;2022-10-12T03:00:42;2.80;99.90
30174;DHT22;16985;50.814;8.530;2022-10-12T03:03:08;2.70;99.90
30174;DHT22;16985;50.814;8.530;2022-10-12T03:05:34;2.70;99.90
30174;DHT22;16985;50.814;8.530;2022-10-12T03:07:59;2.70;99.90
30174;DHT22;16985;50.814;8.530;2022-10-12T03:10:25;2.70;99.90
30174;DHT22;16985;50.814;8.530;2022-10-12T03:12:51;2.70;99.90
30174;DHT22;16985;50.814;8.530;2022-10-12T03:15:18;2.70;99.90
30174;DHT22;16985;50.814;8.530;2022-10-12T03:17:44;2.60;99.90
30174;DHT22;16985;50.814;8.530;2022-10-12T03:20:10;2.60;99.90
30174;DHT22;16985;50.814;8.530;2022-10-12T03:22:36;2.60;99.90
30174;DHT22;16985;50.814;8.530;2022-10-12T03:25:02;2.60;99.90
30174;DHT22;16985;50.814;8.530;2022-10-12T03:27:28;2.60;99.90
30174;DHT22;16985;50.814;8.530;2022-10-12T03:29:54;2.60;99.90
30174;DHT22;16985;50.814;8.530;2022-10-12T03:32:19;2.50;99.90
30174;DHT22;16985;50.814;8.530;2022-10-12T03:34:45;2.50;99.90
30174;DHT22;16985;50.814;8.530;2022-10-12T03:37:11;2.50;99.90
30174;DHT22;16985;50.814;8.530;2022-10-12T03:39:37;2.50;99.90
30174;DHT22;16985;50.814;8.530;2022-10-12T03:42:03;2.50;99.90
30174;DHT22;16985;50.814;8.530;2022-10-12T03:44:29;2.50;99.90
30174;DHT22;16985;50.814;8.530;2022-10-12T03:46:54;2.50;99.90
30174;DHT22;16985;50.814;8.530;2022-10-12T03:49:20;2.40;99.90
30174;DHT22;16985;50.814;8.530;2022-10-12T03:51:46;2.40;99.90
30174;DHT22;16985;50.814;8.530;2022-10-12T03:54:12;2.40;99.90
30174;DHT22;16985;50.814;8.530;2022-10-12T03:56:38;2.40;99.90
30174;DHT22;16985;50.814;8.530;2022-10-12T03:59:04;2.40;99.90
30174;DHT22;16985;50.814;8.530;2022-10-12T04:01:30;2.30;99.90
30174;DHT22;16985;50.814;8.530;2022-10-12T04:03:56;2.30;99.90
30174;DHT22;16985;50.814;8.530;2022-10-12T04:06:21;2.30;99.90
30174;DHT22;16985;50.814;8.530;2022-10-12T04:08:47;2.30;99.90
30174;DHT22;16985;50.814;8.530;2022-10-12T04:11:13;2.30;99.90
30174;DHT22;16985;50.814;8.530;2022-10-12T04:13:39;2.30;99.90
30174;DHT22;16985;50.814;8.530;2022-10-12T04:16:06;2.30;99.90
30174;DHT22;16985;50.814;8.530;2022-10-12T04:18:33;2.30;99.90
30174;DHT22;16985;50.814;8.530;2022-10-12T04:20:59;2.30;99.90
30174;DHT22;16985;50.814;8.530;2022-10-12T04:23:25;2.30;99.90
30174;DHT22;16985;50.814;8.530;2022-10-12T04:25:51;2.20;99.90
30174;DHT22;16985;50.814;8.530;2022-10-12T04:28:17;2.20;99.90
30174;DHT22;16985;50.814;8.530;2022-10-12T04:30:44;2.20;99.90
30174;DHT22;16985;50.814;8.530;2022-10-12T04:33:10;2.20;99.90
30174;DHT22;16985;50.814;8.530;2022-10-12T04:35:36;2.20;99.90
30174;DHT22;16985;50.814;8.530;2022-10-12T04:38:02;2.10;99.90
30174;DHT22;16985;50.814;8.530;2022-10-12T04:40:28;2.10;99.90
30174;DHT22;16985;50.814;8.530;2022-10-12T04:42:54;2.10;99.90
30174;DHT22;16985;50.814;8.530;2022-10-12T04:45:21;2.10;99.90
30174;DHT22;16985;50.814;8.530;2022-10-12T04:47:47;2.10;99.90
30174;DHT22;16985;50.814;8.530;2022-10-12T04:50:13;2.10;99.90
30174;DHT22;16985;50.814;8.530;2022-10-12T04:52:39;2.10;99.90
30174;DHT22;16985;50.814;8.530;2022-10-12T04:55:05;2.00;99.90
30174;DHT22;16985;50.814;8.530;2022-10-12T04:57:31;2.00;99.90
30174;DHT22;16985;50.814;8.530;2022-10-12T04:59:57;2.00;99.90
30174;DHT22;16985;50.814;8.530;2022-10-12T05:02:23;2.00;99.90
30174;DHT22;16985;50.814;8.530;2022-10-12T05:04:49;2.00;99.90
30174;DHT22;16985;50.814;8.530;2022-10-12T05:07:15;2.00;99.90
30174;DHT22;16985;50.814;8.530;2022-10-12T05:09:41;2.00;99.90
30174;DHT22;16985;50.814;8.530;2022-10-12T05:12:07;2.00;99.90
30174;DHT22;16985;50.814;8.530;2022-10-12T05:14:33;2.00;99.90
30174;DHT22;16985;50.814;8.530;2022-10-12T05:16:58;2.00;99.90
30174;DHT22;16985;50.814;8.530;2022-10-12T05:19:24;2.00;99.90
30174;DHT22;16985;50.814;8.530;2022-10-12T05:21:50;2.00;99.90
30174;DHT22;16985;50.814;8.530;2022-10-12T05:24:17;1.90;99.90
30174;DHT22;16985;50.814;8.530;2022-10-12T05:26:43;1.90;99.90
30174;DHT22;16985;50.814;8.530;2022-10-12T05:29:09;1.90;99.90
30174;DHT22;16985;50.814;8.530;2022-10-12T05:31:35;1.90;99.90
30174;DHT22;16985;50.814;8.530;2022-10-12T05:34:01;1.90;99.90
30174;DHT22;16985;50.814;8.530;2022-10-12T05:36:26;1.80;99.90
30174;DHT22;16985;50.814;8.530;2022-10-12T05:38:52;1.80;99.90
30174;DHT22;16985;50.814;8.530;2022-10-12T05:41:18;1.80;99.90
30174;DHT22;16985;50.814;8.530;2022-10-12T05:43:44;1.80;99.90
30174;DHT22;16985;50.814;8.530;2022-10-12T05:46:09;1.80;99.90
30174;DHT22;16985;50.814;8.530;2022-10-12T05:48:35;1.80;99.90
30174;DHT22;16985;50.814;8.530;2022-10-12T05:51:01;1.80;99.90
30174;DHT22;16985;50.814;8.530;2022-10-12T05:53:27;1.80;99.90
30174;DHT22;16985;50.814;8.530;2022-10-12T05:55:55;1.80;99.90
30174;DHT22;16985;50.814;8.530;2022-10-12T05:58:23;1.80;99.90
30174;DHT22;16985;50.814;8.530;2022-10-12T06:00:49;1.80;99.90
30174;DHT22;16985;50.814;8.530;2022-10-12T06:03:15;1.80;99.90
30174;DHT22;16985;50.814;8.530;2022-10-12T06:05:42;1.80;99.90
30174;DHT22;16985;50.814;8.530;2022-10-12T06:08:08;1.80;99.90
30174;DHT22;16985;50.814;8.530;2022-10-12T06:10:44;1.80;99.90
30174;DHT22;16985;50.814;8.530;2022-10-12T06:13:10;1.80;99.90
30174;DHT22;16985;50.814;8.530;2022-10-12T06:15:36;1.80;99.90
30174;DHT22;16985;50.814;8.530;2022-10-12T06:18:02;1.80;99.90
30174;DHT22;16985;50.814;8.530;2022-10-12T06:20:28;1.80;99.90
30174;DHT22;16985;50.814;8.530;2022-10-12T06:22:54;1.80;99.90
30174;DHT22;16985;50.814;8.530;2022-10-12T06:25:19;1.90;99.90
30174;DHT22;16985;50.814;8.530;2022-10-12T06:27:45;1.90;99.90
30174;DHT22;16985;50.814;8.530;2022-10-12T06:30:12;1.90;99.90
30174;DHT22;16985;50.814;8.530;2022-10-12T06:32:38;1.90;99.90
30174;DHT22;16985;50.814;8.530;2022-10-12T06:35:04;1.90;99.90
30174;DHT22;16985;50.814;8.530;2022-10-12T06:37:30;2.00;99.90
30174;DHT22;16985;50.814;8.530;2022-10-12T06:39:56;2.00;99.90
30174;DHT22;16985;50.814;8.530;2022-10-12T06:42:22;2.10;99.90
30174;DHT22;16985;50.814;8.530;2022-10-12T06:44:48;2.10;99.90
30174;DHT22;16985;50.814;8.530;2022-10-12T06:47:14;2.10;99.90
30174;DHT22;16985;50.814;8.530;2022-10-12T06:49:40;2.10;99.90
30174;DHT22;16985;50.814;8.530;2022-10-12T06:52:06;2.10;99.90
30174;DHT22;16985;50.814;8.530;2022-10-12T06:54:32;2.20;99.90
30174;DHT22;16985;50.814;8.530;2022-10-12T06:56:58;2.20;99.90
30174;DHT22;16985;50.814;8.530;2022-10-12T06:59:24;2.20;99.90
30174;DHT22;16985;50.814;8.530;2022-10-12T07:01:50;2.20;99.90
30174;DHT22;16985;50.814;8.530;2022-10-12T07:04:17;2.30;99.90
30174;DHT22;16985;50.814;8.530;2022-10-12T07:06:43;2.30;99.90
30174;DHT22;16985;50.814;8.530;2022-10-12T07:09:09;2.40;99.90
30174;DHT22;16985;50.814;8.530;2022-10-12T07:11:35;2.40;99.90
30174;DHT22;16985;50.814;8.530;2022-10-12T07:14:01;2.50;99.90
30174;DHT22;16985;50.814;8.530;2022-10-12T07:16:27;2.50;99.90
30174;DHT22;16985;50.814;8.530;2022-10-12T07:18:53;2.50;99.90
30174;DHT22;16985;50.814;8.530;2022-10-12T07:21:18;2.60;99.90
30174;DHT22;16985;50.814;8.530;2022-10-12T07:23:44;2.70;99.90
30174;DHT22;16985;50.814;8.530;2022-10-12T07:26:10;2.70;99.90
30174;DHT22;16985;50.814;8.530;2022-10-12T07:28:36;2.70;99.90
30174;DHT22;16985;50.814;8.530;2022-10-12T07:31:04;2.70;99.90
30174;DHT22;16985;50.814;8.530;2022-10-12T07:33:34;2.80;99.90
30174;DHT22;16985;50.814;8.530;2022-10-12T07:36:03;2.80;99.90
30174;DHT22;16985;50.814;8.530;2022-10-12T07:38:30;2.90;99.90
30174;DHT22;16985;50.814;8.530;2022-10-12T07:40:59;2.90;99.90
30174;DHT22;16985;50.814;8.530;2022-10-12T07:43:27;3.00;99.90
30174;DHT22;16985;50.814;8.530;2022-10-12T07:45:53;3.00;99.90
30174;DHT22;16985;50.814;8.530;2022-10-12T07:48:19;3.00;99.90
30174;DHT22;16985;50.814;8.530;2022-10-12T07:50:45;3.10;99.90
30174;DHT22;16985;50.814;8.530;2022-10-12T07:53:11;3.10;99.90
30174;DHT22;16985;50.814;8.530;2022-10-12T07:55:38;3.20;99.90
30174;DHT22;16985;50.814;8.530;2022-10-12T07:58:05;3.20;99.90
30174;DHT22;16985;50.814;8.530;2022-10-12T08:00:31;3.30;99.90
30174;DHT22;16985;50.814;8.530;2022-10-12T08:02:57;3.40;99.90
30174;DHT22;16985;50.814;8.530;2022-10-12T08:05:25;3.50;99.90
30174;DHT22;16985;50.814;8.530;2022-10-12T08:07:51;3.20;99.90
30174;DHT22;16985;50.814;8.530;2022-10-12T08:10:18;3.60;99.90
30174;DHT22;16985;50.814;8.530;2022-10-12T08:12:44;3.80;99.90
30174;DHT22;16985;50.814;8.530;2022-10-12T08:15:12;3.80;99.90
30174;DHT22;16985;50.814;8.530;2022-10-12T08:17:38;3.90;99.90
30174;DHT22;16985;50.814;8.530;2022-10-12T08:20:05;4.10;99.90
30174;DHT22;16985;50.814;8.530;2022-10-12T08:22:31;4.20;99.90
30174;DHT22;16985;50.814;8.530;2022-10-12T08:24:57;4.30;99.90
30174;DHT22;16985;50.814;8.530;2022-10-12T08:27:23;4.40;99.90
30174;DHT22;16985;50.814;8.530;2022-10-12T08:29:49;4.50;99.90
30174;DHT22;16985;50.814;8.530;2022-10-12T08:32:14;4.60;99.90
30174;DHT22;16985;50.814;8.530;2022-10-12T08:34:40;4.80;99.90
30174;DHT22;16985;50.814;8.530;2022-10-12T08:37:07;4.80;99.90
30174;DHT22;16985;50.814;8.530;2022-10-12T08:39:33;5.00;99.90
30174;DHT22;16985;50.814;8.530;2022-10-12T08:47:45;5.40;99.90
30174;DHT22;16985;50.814;8.530;2022-10-12T08:50:33;5.60;99.90
30174;DHT22;16985;50.814;8.530;2022-10-12T08:55:41;5.90;99.90
30174;DHT22;16985;50.814;8.530;2022-10-12T08:58:23;6.10;99.90
30174;DHT22;16985;50.814;8.530;2022-10-12T09:00:58;6.20;99.90
30174;DHT22;16985;50.814;8.530;2022-10-12T09:04:24;6.40;99.90
30174;DHT22;16985;50.814;8.530;2022-10-12T09:07:00;6.60;99.90
30174;DHT22;16985;50.814;8.530;2022-10-12T09:09:49;6.80;99.90
30174;DHT22;16985;50.814;8.530;2022-10-12T09:15:31;7.20;99.90
30174;DHT22;16985;50.814;8.530;2022-10-12T09:18:01;7.40;99.90
30174;DHT22;16985;50.814;8.530;2022-10-12T09:25:40;7.80;99.90
30174;DHT22;16985;50.814;8.530;2022-10-12T09:28:26;8.00;99.90
30174;DHT22;16985;50.814;8.530;2022-10-12T09:31:10;8.20;99.90
30174;DHT22;16985;50.814;8.530;2022-10-12T09:33:55;8.30;99.90
30174;DHT22;16985;50.814;8.530;2022-10-12T09:36:27;8.50;99.90
30174;DHT22;16985;50.814;8.530;2022-10-12T09:38:57;8.70;99.90
30174;DHT22;16985;50.814;8.530;2022-10-12T09:41:35;8.90;99.90
30174;DHT22;16985;50.814;8.530;2022-10-12T09:44:03;9.00;99.90
30174;DHT22;16985;50.814;8.530;2022-10-12T09:46:41;9.20;99.90
30174;DHT22;16985;50.814;8.530;2022-10-12T09:49:10;9.40;99.90
30174;DHT22;16985;50.814;8.530;2022-10-12T09:51:36;9.60;99.90
30174;DHT22;16985;50.814;8.530;2022-10-12T09:54:03;9.80;99.90
30174;DHT22;16985;50.814;8.530;2022-10-12T09:56:40;10.00;99.90
30174;DHT22;16985;50.814;8.530;2022-10-12T09:59:34;10.10;99.90
30174;DHT22;16985;50.814;8.530;2022-10-12T10:02:23;10.20;99.90
30174;DHT22;16985;50.814;8.530;2022-10-12T10:04:51;10.30;99.90
30174;DHT22;16985;50.814;8.530;2022-10-12T10:07:28;10.40;99.90
30174;DHT22;16985;50.814;8.530;2022-10-12T10:15:32;10.70;99.90
30174;DHT22;16985;50.814;8.530;2022-10-12T10:18:06;10.80;99.90
30174;DHT22;16985;50.814;8.530;2022-10-12T10:20:52;11.00;99.90
30174;DHT22;16985;50.814;8.530;2022-10-12T10:23:37;11.10;99.90
30174;DHT22;16985;50.814;8.530;2022-10-12T10:26:13;11.20;99.90
30174;DHT22;16985;50.814;8.530;2022-10-12T10:28:43;11.50;99.90
30174;DHT22;16985;50.814;8.530;2022-10-12T10:34:22;11.70;99.90
30174;DHT22;16985;50.814;8.530;2022-10-12T10:36:50;11.80;99.90
30174;DHT22;16985;50.814;8.530;2022-10-12T10:39:26;12.00;99.90
30174;DHT22;16985;50.814;8.530;2022-10-12T10:41:54;12.10;99.90
30174;DHT22;16985;50.814;8.530;2022-10-12T10:44:27;12.20;99.90
30174;DHT22;16985;50.814;8.530;2022-10-12T10:47:06;12.20;99.90
30174;DHT22;16985;50.814;8.530;2022-10-12T10:49:38;12.30;99.50
30174;DHT22;16985;50.814;8.530;2022-10-12T10:52:17;12.40;98.80
30174;DHT22;16985;50.814;8.530;2022-10-12T10:54:46;12.50;98.40
30174;DHT22;16985;50.814;8.530;2022-10-12T10:57:18;12.60;97.60
30174;DHT22;16985;50.814;8.530;2022-10-12T10:59:58;12.60;97.50
30174;DHT22;16985;50.814;8.530;2022-10-12T11:07:57;13.00;97.70
30174;DHT22;16985;50.814;8.530;2022-10-12T11:10:31;13.10;97.50
30174;DHT22;16985;50.814;8.530;2022-10-12T11:13:30;13.20;97.30
30174;DHT22;16985;50.814;8.530;2022-10-12T11:18:57;13.50;96.80
30174;DHT22;16985;50.814;8.530;2022-10-12T11:21:53;13.60;96.70
30174;DHT22;16985;50.814;8.530;2022-10-12T11:24:32;13.70;96.30
30174;DHT22;16985;50.814;8.530;2022-10-12T11:27:21;13.70;96.00
30174;DHT22;16985;50.814;8.530;2022-10-12T11:30:01;13.80;95.70
30174;DHT22;16985;50.814;8.530;2022-10-12T11:32:35;13.90;95.50
30174;DHT22;16985;50.814;8.530;2022-10-12T11:35:04;13.90;95.10
30174;DHT22;16985;50.814;8.530;2022-10-12T11:43:22;14.20;94.20
30174;DHT22;16985;50.814;8.530;2022-10-12T11:45:53;14.20;93.90
30174;DHT22;16985;50.814;8.530;2022-10-12T11:48:33;14.20;94.00
30174;DHT22;16985;50.814;8.530;2022-10-12T11:51:04;14.30;93.90
30174;DHT22;16985;50.814;8.530;2022-10-12T11:54:23;14.40;93.90
30174;DHT22;16985;50.814;8.530;2022-10-12T11:56:33;14.40;94.00
30174;DHT22;16985;50.814;8.530;2022-10-12T11:59:18;14.60;94.00
30174;DHT22;16985;50.814;8.530;2022-10-12T12:02:15;14.80;93.70
30174;DHT22;16985;50.814;8.530;2022-10-12T12:04:43;15.00;93.30
30174;DHT22;16985;50.814;8.530;2022-10-12T12:13:22;15.50;92.30
30174;DHT22;16985;50.814;8.530;2022-10-12T12:18:30;15.90;91.60
30174;DHT22;16985;50.814;8.530;2022-10-12T12:21:04;16.10;91.50
30174;DHT22;16985;50.814;8.530;2022-10-12T12:26:23;16.30;90.20
30174;DHT22;16985;50.814;8.530;2022-10-12T12:29:09;16.40;90.00
30174;DHT22;16985;50.814;8.530;2022-10-12T12:31:37;16.60;89.20
30174;DHT22;16985;50.814;8.530;2022-10-12T12:34:12;16.40;88.50
30174;DHT22;16985;50.814;8.530;2022-10-12T12:36:44;16.40;88.30
30174;DHT22;16985;50.814;8.530;2022-10-12T12:39:30;16.40;88.00
30174;DHT22;16985;50.814;8.530;2022-10-12T12:41:59;16.40;87.70
30174;DHT22;16985;50.814;8.530;2022-10-12T12:49:49;16.30;88.30
30174;DHT22;16985;50.814;8.530;2022-10-12T12:52:38;16.30;88.10
30174;DHT22;16985;50.814;8.530;2022-10-12T13:04:08;16.30;88.50
30174;DHT22;16985;50.814;8.530;2022-10-12T13:13:28;16.70;86.40
30174;DHT22;16985;50.814;8.530;2022-10-12T13:19:03;16.70;86.10
30174;DHT22;16985;50.814;8.530;2022-10-12T13:21:39;16.80;86.30
30174;DHT22;16985;50.814;8.530;2022-10-12T13:29:47;16.90;85.30
30174;DHT22;16985;50.814;8.530;2022-10-12T13:35:04;16.70;85.60
30174;DHT22;16985;50.814;8.530;2022-10-12T13:37:34;16.70;86.00
30174;DHT22;16985;50.814;8.530;2022-10-12T13:40:03;16.60;86.30
30174;DHT22;16985;50.814;8.530;2022-10-12T13:42:32;16.50;86.70
30174;DHT22;16985;50.814;8.530;2022-10-12T13:45:03;16.40;86.50
30174;DHT22;16985;50.814;8.530;2022-10-12T13:47:32;16.30;87.00
30174;DHT22;16985;50.814;8.530;2022-10-12T13:49:59;16.20;87.30
30174;DHT22;16985;50.814;8.530;2022-10-12T13:52:30;16.10;87.80
30174;DHT22;16985;50.814;8.530;2022-10-12T13:54:59;16.00;88.60
30174;DHT22;16985;50.814;8.530;2022-10-12T13:57:39;15.90;89.00
30174;DHT22;16985;50.814;8.530;2022-10-12T14:00:19;15.80;89.40
30174;DHT22;16985;50.814;8.530;2022-10-12T14:03:03;15.70;90.00
30174;DHT22;16985;50.814;8.530;2022-10-12T14:05:42;15.70;90.10
30174;DHT22;16985;50.814;8.530;2022-10-12T14:08:14;15.60;90.40
30174;DHT22;16985;50.814;8.530;2022-10-12T14:10:44;15.50;90.50
30174;DHT22;16985;50.814;8.530;2022-10-12T14:13:14;15.40;90.80
30174;DHT22;16985;50.814;8.530;2022-10-12T14:15:47;15.40;90.90
30174;DHT22;16985;50.814;8.530;2022-10-12T14:18:39;15.40;91.00
30174;DHT22;16985;50.814;8.530;2022-10-12T14:24:06;15.20;91.50
30174;DHT22;16985;50.814;8.530;2022-10-12T14:26:41;15.20;91.60
30174;DHT22;16985;50.814;8.530;2022-10-12T14:29:35;15.20;91.50
30174;DHT22;16985;50.814;8.530;2022-10-12T14:32:29;15.10;91.60
30174;DHT22;16985;50.814;8.530;2022-10-12T14:35:23;15.10;91.80
30174;DHT22;16985;50.814;8.530;2022-10-12T14:37:52;15.00;92.00
30174;DHT22;16985;50.814;8.530;2022-10-12T14:40:36;15.10;92.20
30174;DHT22;16985;50.814;8.530;2022-10-12T14:43:20;15.00;92.40
30174;DHT22;16985;50.814;8.530;2022-10-12T14:45:50;15.00;92.60
30174;DHT22;16985;50.814;8.530;2022-10-12T14:48:19;14.90;92.80
30174;DHT22;16985;50.814;8.530;2022-10-12T14:50:48;15.00;92.90
30174;DHT22;16985;50.814;8.530;2022-10-12T14:53:15;14.90;92.90
30174;DHT22;16985;50.814;8.530;2022-10-12T14:55:42;14.90;93.00
30174;DHT22;16985;50.814;8.530;2022-10-12T14:58:13;14.80;93.00
30174;DHT22;16985;50.814;8.530;2022-10-12T15:00:41;14.90;93.10
30174;DHT22;16985;50.814;8.530;2022-10-12T15:03:08;14.80;93.30
30174;DHT22;16985;50.814;8.530;2022-10-12T15:05:34;14.80;93.30
30174;DHT22;16985;50.814;8.530;2022-10-12T15:08:01;14.80;93.40
30174;DHT22;16985;50.814;8.530;2022-10-12T15:10:31;14.70;93.40
30174;DHT22;16985;50.814;8.530;2022-10-12T15:12:57;14.70;93.40
30174;DHT22;16985;50.814;8.530;2022-10-12T15:17:57;14.70;93.60
30174;DHT22;16985;50.814;8.530;2022-10-12T15:20:27;14.70;93.70
30174;DHT22;16985;50.814;8.530;2022-10-12T15:22:58;14.70;93.80
30174;DHT22;16985;50.814;8.530;2022-10-12T15:25:33;14.70;94.30
30174;DHT22;16985;50.814;8.530;2022-10-12T15:28:06;14.70;94.40
30174;DHT22;16985;50.814;8.530;2022-10-12T15:30:33;14.70;94.50
30174;DHT22;16985;50.814;8.530;2022-10-12T15:32:59;14.60;94.60
30174;DHT22;16985;50.814;8.530;2022-10-12T15:35:27;14.60;94.70
30174;DHT22;16985;50.814;8.530;2022-10-12T15:37:54;14.60;94.80
30174;DHT22;16985;50.814;8.530;2022-10-12T15:40:27;14.60;95.00
30174;DHT22;16985;50.814;8.530;2022-10-12T15:42:53;14.50;95.20
30174;DHT22;16985;50.814;8.530;2022-10-12T15:45:30;14.50;95.20
30174;DHT22;16985;50.814;8.530;2022-10-12T15:47:57;14.50;95.40
30174;DHT22;16985;50.814;8.530;2022-10-12T15:50:27;14.50;95.50
30174;DHT22;16985;50.814;8.530;2022-10-12T15:52:55;14.50;95.70
30174;DHT22;16985;50.814;8.530;2022-10-12T15:55:22;14.40;96.00
30174;DHT22;16985;50.814;8.530;2022-10-12T15:57:49;14.40;96.60
30174;DHT22;16985;50.814;8.530;2022-10-12T16:00:17;14.40;96.70
30174;DHT22;16985;50.814;8.530;2022-10-12T16:02:45;14.40;97.00
30174;DHT22;16985;50.814;8.530;2022-10-12T16:05:33;14.30;97.50
30174;DHT22;16985;50.814;8.530;2022-10-12T16:08:04;14.30;97.60
30174;DHT22;16985;50.814;8.530;2022-10-12T16:10:37;14.20;97.80
30174;DHT22;16985;50.814;8.530;2022-10-12T16:13:06;14.20;98.00
30174;DHT22;16985;50.814;8.530;2022-10-12T16:15:34;14.20;98.30
30174;DHT22;16985;50.814;8.530;2022-10-12T16:18:02;14.10;98.60
30174;DHT22;16985;50.814;8.530;2022-10-12T16:20:30;14.20;99.10
30174;DHT22;16985;50.814;8.530;2022-10-12T16:22:59;14.10;99.40
30174;DHT22;16985;50.814;8.530;2022-10-12T16:25:25;14.00;99.90
30174;DHT22;16985;50.814;8.530;2022-10-12T16:27:55;14.00;99.90
30174;DHT22;16985;50.814;8.530;2022-10-12T16:30:22;13.90;99.90
30174;DHT22;16985;50.814;8.530;2022-10-12T16:32:49;13.90;99.90
30174;DHT22;16985;50.814;8.530;2022-10-12T16:35:15;13.80;99.90
30174;DHT22;16985;50.814;8.530;2022-10-12T16:37:44;13.70;99.90
30174;DHT22;16985;50.814;8.530;2022-10-12T16:40:11;13.60;99.90
30174;DHT22;16985;50.814;8.530;2022-10-12T16:42:37;13.60;99.90
30174;DHT22;16985;50.814;8.530;2022-10-12T16:45:03;13.50;99.90
30174;DHT22;16985;50.814;8.530;2022-10-12T16:47:30;13.50;99.90
30174;DHT22;16985;50.814;8.530;2022-10-12T16:49:55;13.40;99.90
30174;DHT22;16985;50.814;8.530;2022-10-12T16:52:23;13.30;99.90
30174;DHT22;16985;50.814;8.530;2022-10-12T16:54:54;13.20;99.90
30174;DHT22;16985;50.814;8.530;2022-10-12T16:57:21;13.10;99.90
30174;DHT22;16985;50.814;8.530;2022-10-12T16:59:51;13.10;99.90
30174;DHT22;16985;50.814;8.530;2022-10-12T17:02:18;13.00;99.90
30174;DHT22;16985;50.814;8.530;2022-10-12T17:04:45;12.90;99.90
30174;DHT22;16985;50.814;8.530;2022-10-12T17:07:11;12.80;99.90
30174;DHT22;16985;50.814;8.530;2022-10-12T17:09:37;12.80;99.90
30174;DHT22;16985;50.814;8.530;2022-10-12T17:12:04;12.70;99.90
30174;DHT22;16985;50.814;8.530;2022-10-12T17:14:30;12.60;99.90
30174;DHT22;16985;50.814;8.530;2022-10-12T17:16:56;12.60;99.90
30174;DHT22;16985;50.814;8.530;2022-10-12T17:19:28;12.50;99.90
30174;DHT22;16985;50.814;8.530;2022-10-12T17:21:58;12.50;99.90
30174;DHT22;16985;50.814;8.530;2022-10-12T17:24:29;12.40;99.90
30174;DHT22;16985;50.814;8.530;2022-10-12T17:26:57;12.40;99.90
30174;DHT22;16985;50.814;8.530;2022-10-12T17:29:26;12.30;99.90
30174;DHT22;16985;50.814;8.530;2022-10-12T17:31:53;12.30;99.90
30174;DHT22;16985;50.814;8.530;2022-10-12T17:34:25;12.30;99.90
30174;DHT22;16985;50.814;8.530;2022-10-12T17:36:55;12.20;99.90
30174;DHT22;16985;50.814;8.530;2022-10-12T17:39:22;12.20;99.90
30174;DHT22;16985;50.814;8.530;2022-10-12T17:41:48;12.20;99.90
30174;DHT22;16985;50.814;8.530;2022-10-12T17:44:15;12.20;99.90
30174;DHT22;16985;50.814;8.530;2022-10-12T17:46:43;12.10;99.90